Dauntless Aviation
Greetings, Guest! To participate, [sign up for a free account] or [log in]
Airports Europe Germany
EDSW

Altdorf-Wallburg

Altdorf-Wallburg, GERMANY

Airport Info
Edit

Location

Latitude / Longitude: 48°16'11"N / 7°50'31"E
  48°16.188'N / 7°50.532'E
  48.2698 / 7.8422
Satellite photo at:
Airport distance calculator
From:
Weather Reports

METAR

EDTL
5.8nm NW
EDTL 311620Z 29023KT 250V310 9999 VCSH FEW013 13/02 Q1012
LFST
18.2nm NW
LFST 311630Z AUTO 30012KT 250V350 9999 SCT054 SCT068 BKN084 10/04 Q1012
EDSB
32.3nm N
EDSB 311620Z 30011G23KT 260V340 9000 VCSH SCT036CB SCT049 06/03 Q1013

TAF

EDTL
5.8nm NW
TAF EDTL 311400Z 3115/3124 25020G30KT 9999 SCT040 TEMPO 3115/3124 26025G40KT SHRAGS BKN020CB PROB30 3115/3121 TSRAGS
LFST
18.2nm NW
TAF AMD LFST 311558Z 3115/0112 28025G40KT 9999 SCT025TCU BKN030 BKN050 PROB40 TEMPO 3115/3118 26030G50KT BECMG 3118/3120 28015G25KT PROB40 TEMPO 3115/0106 4000 SHRA BKN025TCU PROB40 TEMPO 3116/3118 3000 TSRA BKN030CB PROB40 TEMPO 3120/0106 29020G35KT
EDSB
32.3nm N
TAF AMD EDSB 311509Z 3115/0112 26015G30KT 9999 BKN030 TEMPO 3115/0112 SHRA BKN014CB PROB40 TEMPO 3115/3118 26025G45KT TSRAGS
Safelog

 

Dauntless Aviation

© 2007-2015 Dauntless Aviation, all rights reserved
Information provided via PilotNav comes from a variety of official and unofficial data sources. As errors are possible, do not use PilotNav for primary flight planning purposes. Verify any information that you receive via PilotNav with current and canonical charts and other official documents. The material in this database is subject to database copyrights held by Dauntless Aviation and may not be copied without the express permission of Dauntless Aviation - licenses for use of part of all of this data are available for purchase; enquire via the Dauntless Aviation helpdesk. A number of mechanisms and markers exist in the database to protect against and identify infringement / copyright. Automated queries against this website are stictly prohibited, and all activity is logged and analyzed.